createdAt,value
2023-03-24T06:45:08.789Z,6.89
2023-03-24T06:47:38.122Z,7.31
2023-03-24T06:50:07.914Z,7.51
2023-03-24T06:52:36.672Z,7.72
2023-03-24T06:55:06.398Z,7.90
2023-03-24T06:57:34.875Z,8.10
2023-03-24T07:00:21.690Z,8.33
2023-03-24T07:03:04.339Z,8.58
2023-03-24T07:05:35.057Z,8.78
2023-03-24T07:08:28.001Z,8.98
2023-03-24T07:10:59.024Z,9.21
2023-03-24T07:13:27.096Z,9.41
2023-03-24T07:16:00.223Z,9.62
2023-03-24T07:18:29.211Z,9.84
2023-03-24T07:21:07.772Z,10.05
2023-03-24T07:23:36.728Z,10.24
2023-03-24T07:26:19.097Z,10.46
2023-03-24T07:28:50.948Z,10.66
2023-03-24T07:31:37.908Z,10.89
2023-03-24T07:34:09.253Z,11.08
2023-03-24T07:36:38.918Z,11.23
2023-03-24T07:39:09.749Z,11.45
2023-03-24T07:41:38.025Z,11.64
2023-03-24T07:44:12.561Z,11.82
2023-03-24T07:46:46.489Z,12.04
2023-03-24T07:49:19.497Z,12.20
2023-03-24T07:52:06.851Z,12.40
2023-03-24T07:54:40.211Z,12.56
2023-03-24T07:57:10.985Z,12.76
2023-03-24T07:59:39.894Z,12.97
2023-03-24T08:02:20.793Z,13.15
2023-03-24T08:05:16.382Z,13.24
2023-03-24T08:08:06.892Z,13.34
2023-03-24T08:10:35.972Z,13.43
2023-03-24T08:13:04.100Z,13.47
2023-03-24T08:15:32.638Z,13.55
2023-03-24T08:18:01.097Z,13.67
2023-03-24T08:20:29.843Z,13.83
2023-03-24T08:22:58.069Z,14.02
2023-03-24T08:25:27.040Z,14.20
2023-03-24T08:27:55.477Z,14.37
2023-03-24T08:30:26.042Z,14.55
2023-03-24T08:32:57.436Z,14.74
2023-03-24T08:35:29.180Z,14.90
2023-03-24T08:37:59.548Z,14.98
2023-03-24T08:40:29.322Z,14.95
2023-03-24T08:43:01.046Z,15.02
2023-03-24T08:45:31.692Z,15.14
2023-03-24T08:48:02.781Z,15.29
2023-03-24T08:50:35.212Z,15.48
2023-03-24T08:53:04.826Z,15.65
2023-03-24T08:55:33.702Z,15.76
2023-03-24T08:58:02.253Z,15.92
2023-03-24T09:00:30.578Z,16.06
2023-03-24T09:03:01.340Z,16.25
2023-03-24T09:05:41.004Z,16.40
2023-03-24T09:08:14.212Z,16.53
2023-03-24T09:10:43.611Z,16.64
2023-03-24T09:13:11.805Z,16.76
2023-03-24T09:15:40.433Z,16.90
2023-03-24T09:18:08.875Z,17.04
2023-03-24T09:20:37.253Z,17.15
2023-03-24T09:23:05.724Z,17.27
2023-03-24T09:25:34.103Z,17.37
2023-03-24T09:28:02.805Z,17.52
2023-03-24T09:30:33.322Z,17.66
2023-03-24T09:33:03.113Z,17.83
2023-03-24T09:35:31.569Z,17.98
2023-03-24T09:38:00.123Z,18.11
2023-03-24T09:40:31.312Z,18.25
2023-03-24T09:43:12.629Z,18.40
2023-03-24T09:45:51.682Z,18.59
2023-03-24T09:48:51.932Z,18.73
2023-03-24T09:51:36.752Z,18.88
2023-03-24T09:54:27.432Z,19.02
2023-03-24T09:56:57.656Z,19.15
2023-03-24T09:59:26.038Z,19.27
2023-03-24T10:01:54.428Z,19.33
2023-03-24T10:04:26.693Z,19.36
2023-03-24T10:07:16.373Z,19.46
2023-03-24T10:09:49.042Z,19.57
2023-03-24T10:12:46.617Z,19.64
2023-03-24T10:15:37.583Z,19.75
2023-03-24T10:18:12.620Z,19.85
2023-03-24T10:21:02.894Z,19.89
2023-03-24T10:23:47.959Z,20.03
2023-03-24T10:26:39.416Z,20.20
2023-03-24T10:29:19.694Z,20.19
2023-03-24T10:31:52.372Z,20.23
2023-03-24T10:34:22.722Z,20.36
